sensor_id;sensor_type;location;lat;lon;timestamp;P1;durP1;ratioP1;P2;durP2;ratioP2
8458;SDS011;4266;48.816;9.154;2024-03-02T00:00:33;14.60;;;13.10;;
8458;SDS011;4266;48.816;9.154;2024-03-02T00:02:59;13.90;;;12.40;;
8458;SDS011;4266;48.816;9.154;2024-03-02T00:05:25;14.93;;;11.97;;
8458;SDS011;4266;48.816;9.154;2024-03-02T00:07:53;14.30;;;12.80;;
8458;SDS011;4266;48.816;9.154;2024-03-02T00:10:21;16.17;;;12.40;;
8458;SDS011;4266;48.816;9.154;2024-03-02T00:12:46;13.43;;;12.07;;
8458;SDS011;4266;48.816;9.154;2024-03-02T00:15:35;14.83;;;12.97;;
8458;SDS011;4266;48.816;9.154;2024-03-02T00:17:55;13.80;;;11.83;;
8458;SDS011;4266;48.816;9.154;2024-03-02T00:20:21;14.77;;;12.47;;
8458;SDS011;4266;48.816;9.154;2024-03-02T00:22:47;15.53;;;13.07;;
8458;SDS011;4266;48.816;9.154;2024-03-02T00:25:14;15.17;;;13.13;;
8458;SDS011;4266;48.816;9.154;2024-03-02T00:27:39;17.37;;;13.27;;
8458;SDS011;4266;48.816;9.154;2024-03-02T00:30:13;15.37;;;12.87;;
8458;SDS011;4266;48.816;9.154;2024-03-02T00:32:49;14.13;;;12.70;;
8458;SDS011;4266;48.816;9.154;2024-03-02T00:35:14;15.37;;;13.43;;
8458;SDS011;4266;48.816;9.154;2024-03-02T00:37:40;14.90;;;13.40;;
8458;SDS011;4266;48.816;9.154;2024-03-02T00:40:07;15.00;;;13.10;;
8458;SDS011;4266;48.816;9.154;2024-03-02T00:42:33;14.97;;;13.37;;
8458;SDS011;4266;48.816;9.154;2024-03-02T00:44:59;15.67;;;13.00;;
8458;SDS011;4266;48.816;9.154;2024-03-02T00:47:25;14.97;;;12.10;;
8458;SDS011;4266;48.816;9.154;2024-03-02T00:49:50;18.80;;;12.03;;
8458;SDS011;4266;48.816;9.154;2024-03-02T00:52:16;13.83;;;12.43;;
8458;SDS011;4266;48.816;9.154;2024-03-02T00:54:42;15.60;;;13.17;;
8458;SDS011;4266;48.816;9.154;2024-03-02T00:57:10;15.67;;;12.20;;
8458;SDS011;4266;48.816;9.154;2024-03-02T00:59:34;16.80;;;12.27;;
8458;SDS011;4266;48.816;9.154;2024-03-02T01:02:00;14.93;;;12.40;;
8458;SDS011;4266;48.816;9.154;2024-03-02T01:04:25;13.00;;;11.70;;
8458;SDS011;4266;48.816;9.154;2024-03-02T01:06:51;13.43;;;11.90;;
8458;SDS011;4266;48.816;9.154;2024-03-02T01:09:17;13.60;;;12.13;;
8458;SDS011;4266;48.816;9.154;2024-03-02T01:11:42;14.07;;;12.50;;
8458;SDS011;4266;48.816;9.154;2024-03-02T01:14:09;13.10;;;11.73;;
8458;SDS011;4266;48.816;9.154;2024-03-02T01:16:35;15.07;;;12.50;;
8458;SDS011;4266;48.816;9.154;2024-03-02T01:19:01;14.40;;;11.87;;
8458;SDS011;4266;48.816;9.154;2024-03-02T01:21:26;14.30;;;12.90;;
8458;SDS011;4266;48.816;9.154;2024-03-02T01:23:53;15.13;;;12.73;;
8458;SDS011;4266;48.816;9.154;2024-03-02T01:26:18;14.93;;;12.73;;
8458;SDS011;4266;48.816;9.154;2024-03-02T01:28:44;15.30;;;12.97;;
8458;SDS011;4266;48.816;9.154;2024-03-02T01:31:11;16.10;;;14.03;;
8458;SDS011;4266;48.816;9.154;2024-03-02T01:33:36;16.23;;;13.07;;
8458;SDS011;4266;48.816;9.154;2024-03-02T01:36:03;21.97;;;13.43;;
8458;SDS011;4266;48.816;9.154;2024-03-02T01:38:29;16.10;;;14.33;;
8458;SDS011;4266;48.816;9.154;2024-03-02T01:40:55;16.13;;;13.67;;
8458;SDS011;4266;48.816;9.154;2024-03-02T01:43:21;19.30;;;15.10;;
8458;SDS011;4266;48.816;9.154;2024-03-02T01:45:47;16.53;;;14.30;;
8458;SDS011;4266;48.816;9.154;2024-03-02T01:48:14;17.43;;;13.70;;
8458;SDS011;4266;48.816;9.154;2024-03-02T01:50:39;18.30;;;14.33;;
8458;SDS011;4266;48.816;9.154;2024-03-02T01:53:05;18.10;;;15.10;;
8458;SDS011;4266;48.816;9.154;2024-03-02T01:55:31;18.17;;;14.90;;
8458;SDS011;4266;48.816;9.154;2024-03-02T01:57:57;16.63;;;14.90;;
8458;SDS011;4266;48.816;9.154;2024-03-02T02:00:23;17.07;;;14.27;;
8458;SDS011;4266;48.816;9.154;2024-03-02T02:02:48;18.93;;;15.60;;
8458;SDS011;4266;48.816;9.154;2024-03-02T02:05:15;18.27;;;15.70;;
8458;SDS011;4266;48.816;9.154;2024-03-02T02:07:41;19.70;;;15.67;;
8458;SDS011;4266;48.816;9.154;2024-03-02T02:10:07;17.43;;;15.00;;
8458;SDS011;4266;48.816;9.154;2024-03-02T02:12:33;22.13;;;14.43;;
8458;SDS011;4266;48.816;9.154;2024-03-02T02:14:59;17.67;;;14.20;;
8458;SDS011;4266;48.816;9.154;2024-03-02T02:17:25;18.47;;;14.07;;
8458;SDS011;4266;48.816;9.154;2024-03-02T02:19:51;18.37;;;14.10;;
8458;SDS011;4266;48.816;9.154;2024-03-02T02:22:16;18.13;;;15.30;;
8458;SDS011;4266;48.816;9.154;2024-03-02T02:24:42;15.90;;;14.20;;
8458;SDS011;4266;48.816;9.154;2024-03-02T02:27:09;20.20;;;16.97;;
8458;SDS011;4266;48.816;9.154;2024-03-02T02:29:34;22.07;;;16.97;;
8458;SDS011;4266;48.816;9.154;2024-03-02T02:32:00;22.77;;;18.23;;
8458;SDS011;4266;48.816;9.154;2024-03-02T02:34:26;23.13;;;18.60;;
8458;SDS011;4266;48.816;9.154;2024-03-02T02:36:52;24.10;;;18.63;;
8458;SDS011;4266;48.816;9.154;2024-03-02T02:39:18;20.27;;;17.80;;
8458;SDS011;4266;48.816;9.154;2024-03-02T02:41:43;25.10;;;18.70;;
8458;SDS011;4266;48.816;9.154;2024-03-02T02:44:10;23.60;;;18.37;;
8458;SDS011;4266;48.816;9.154;2024-03-02T02:46:35;22.33;;;18.13;;
8458;SDS011;4266;48.816;9.154;2024-03-02T02:49:01;25.83;;;19.87;;
8458;SDS011;4266;48.816;9.154;2024-03-02T02:51:27;23.27;;;19.67;;
8458;SDS011;4266;48.816;9.154;2024-03-02T02:53:52;22.93;;;19.30;;
8458;SDS011;4266;48.816;9.154;2024-03-02T02:56:18;21.73;;;18.60;;
8458;SDS011;4266;48.816;9.154;2024-03-02T02:58:44;24.80;;;19.43;;
8458;SDS011;4266;48.816;9.154;2024-03-02T03:01:10;21.83;;;18.13;;
8458;SDS011;4266;48.816;9.154;2024-03-02T03:03:36;23.50;;;18.57;;
8458;SDS011;4266;48.816;9.154;2024-03-02T03:06:01;24.57;;;20.23;;
8458;SDS011;4266;48.816;9.154;2024-03-02T03:08:28;23.27;;;18.03;;
8458;SDS011;4266;48.816;9.154;2024-03-02T03:10:54;21.40;;;18.50;;
8458;SDS011;4266;48.816;9.154;2024-03-02T03:13:19;22.63;;;18.33;;
8458;SDS011;4266;48.816;9.154;2024-03-02T03:15:45;24.90;;;19.47;;
8458;SDS011;4266;48.816;9.154;2024-03-02T03:18:12;22.77;;;18.37;;
8458;SDS011;4266;48.816;9.154;2024-03-02T03:20:38;23.67;;;18.80;;
8458;SDS011;4266;48.816;9.154;2024-03-02T03:23:04;27.53;;;20.57;;
8458;SDS011;4266;48.816;9.154;2024-03-02T03:25:30;23.60;;;19.37;;
8458;SDS011;4266;48.816;9.154;2024-03-02T03:27:56;29.70;;;21.63;;
8458;SDS011;4266;48.816;9.154;2024-03-02T03:30:21;28.43;;;19.93;;
8458;SDS011;4266;48.816;9.154;2024-03-02T03:32:47;28.03;;;20.90;;
8458;SDS011;4266;48.816;9.154;2024-03-02T03:35:14;26.43;;;20.10;;
8458;SDS011;4266;48.816;9.154;2024-03-02T03:37:39;26.57;;;18.77;;
8458;SDS011;4266;48.816;9.154;2024-03-02T03:40:05;32.00;;;21.20;;
8458;SDS011;4266;48.816;9.154;2024-03-02T03:42:33;24.03;;;18.37;;
8458;SDS011;4266;48.816;9.154;2024-03-02T03:44:59;22.20;;;18.37;;
8458;SDS011;4266;48.816;9.154;2024-03-02T03:47:24;27.37;;;19.57;;
8458;SDS011;4266;48.816;9.154;2024-03-02T03:49:50;28.30;;;20.57;;
8458;SDS011;4266;48.816;9.154;2024-03-02T03:52:16;23.83;;;19.77;;
8458;SDS011;4266;48.816;9.154;2024-03-02T03:54:42;28.00;;;18.87;;
8458;SDS011;4266;48.816;9.154;2024-03-02T03:57:08;26.13;;;19.53;;
8458;SDS011;4266;48.816;9.154;2024-03-02T03:59:33;26.70;;;19.80;;
8458;SDS011;4266;48.816;9.154;2024-03-02T04:01:59;31.03;;;21.03;;
8458;SDS011;4266;48.816;9.154;2024-03-02T04:04:25;27.33;;;20.40;;
8458;SDS011;4266;48.816;9.154;2024-03-02T04:06:51;26.83;;;19.17;;
8458;SDS011;4266;48.816;9.154;2024-03-02T04:09:17;26.63;;;19.20;;
8458;SDS011;4266;48.816;9.154;2024-03-02T04:11:42;23.97;;;19.33;;
8458;SDS011;4266;48.816;9.154;2024-03-02T04:14:08;26.63;;;19.43;;
8458;SDS011;4266;48.816;9.154;2024-03-02T04:16:34;27.50;;;19.23;;
8458;SDS011;4266;48.816;9.154;2024-03-02T04:18:59;25.50;;;19.60;;
8458;SDS011;4266;48.816;9.154;2024-03-02T04:21:25;23.67;;;17.10;;
8458;SDS011;4266;48.816;9.154;2024-03-02T04:23:51;23.57;;;17.97;;
8458;SDS011;4266;48.816;9.154;2024-03-02T04:26:16;25.20;;;18.17;;
8458;SDS011;4266;48.816;9.154;2024-03-02T04:28:43;25.20;;;18.43;;
8458;SDS011;4266;48.816;9.154;2024-03-02T04:31:08;24.97;;;18.43;;
8458;SDS011;4266;48.816;9.154;2024-03-02T04:33:34;24.23;;;17.83;;
8458;SDS011;4266;48.816;9.154;2024-03-02T04:36:00;28.33;;;19.13;;
8458;SDS011;4266;48.816;9.154;2024-03-02T04:38:25;25.37;;;18.13;;
8458;SDS011;4266;48.816;9.154;2024-03-02T04:40:51;27.43;;;19.20;;
8458;SDS011;4266;48.816;9.154;2024-03-02T04:43:18;23.17;;;17.23;;
8458;SDS011;4266;48.816;9.154;2024-03-02T04:45:44;25.07;;;18.60;;
8458;SDS011;4266;48.816;9.154;2024-03-02T04:48:10;23.33;;;18.13;;
8458;SDS011;4266;48.816;9.154;2024-03-02T04:50:36;27.60;;;18.63;;
8458;SDS011;4266;48.816;9.154;2024-03-02T04:53:02;26.83;;;18.87;;
8458;SDS011;4266;48.816;9.154;2024-03-02T04:55:28;24.83;;;18.17;;
8458;SDS011;4266;48.816;9.154;2024-03-02T04:58:09;26.53;;;18.20;;
8458;SDS011;4266;48.816;9.154;2024-03-02T05:00:35;30.67;;;19.73;;
8458;SDS011;4266;48.816;9.154;2024-03-02T05:03:01;29.03;;;19.60;;
8458;SDS011;4266;48.816;9.154;2024-03-02T05:05:26;23.37;;;17.93;;
8458;SDS011;4266;48.816;9.154;2024-03-02T05:07:52;26.20;;;19.10;;
8458;SDS011;4266;48.816;9.154;2024-03-02T05:10:18;25.53;;;18.83;;
8458;SDS011;4266;48.816;9.154;2024-03-02T05:12:45;28.83;;;19.07;;
8458;SDS011;4266;48.816;9.154;2024-03-02T05:15:17;25.63;;;19.50;;
8458;SDS011;4266;48.816;9.154;2024-03-02T05:17:43;25.53;;;19.07;;
8458;SDS011;4266;48.816;9.154;2024-03-02T05:20:09;25.33;;;19.20;;
8458;SDS011;4266;48.816;9.154;2024-03-02T05:22:35;27.97;;;19.90;;
8458;SDS011;4266;48.816;9.154;2024-03-02T05:25:01;28.10;;;20.43;;
8458;SDS011;4266;48.816;9.154;2024-03-02T05:27:27;26.40;;;19.23;;
8458;SDS011;4266;48.816;9.154;2024-03-02T05:29:52;26.40;;;19.83;;
8458;SDS011;4266;48.816;9.154;2024-03-02T05:32:18;27.87;;;19.53;;
8458;SDS011;4266;48.816;9.154;2024-03-02T05:34:44;26.97;;;19.47;;
8458;SDS011;4266;48.816;9.154;2024-03-02T05:37:11;26.97;;;19.47;;
8458;SDS011;4266;48.816;9.154;2024-03-02T05:39:37;25.50;;;19.70;;
8458;SDS011;4266;48.816;9.154;2024-03-02T05:42:02;27.63;;;19.93;;
8458;SDS011;4266;48.816;9.154;2024-03-02T05:44:28;24.37;;;18.20;;
8458;SDS011;4266;48.816;9.154;2024-03-02T05:46:54;25.13;;;18.40;;
8458;SDS011;4266;48.816;9.154;2024-03-02T05:49:19;26.80;;;18.10;;
8458;SDS011;4266;48.816;9.154;2024-03-02T05:51:45;28.67;;;19.00;;
8458;SDS011;4266;48.816;9.154;2024-03-02T05:54:11;26.53;;;18.57;;
8458;SDS011;4266;48.816;9.154;2024-03-02T05:56:37;28.10;;;18.77;;
8458;SDS011;4266;48.816;9.154;2024-03-02T05:59:03;24.03;;;17.50;;
8458;SDS011;4266;48.816;9.154;2024-03-02T06:01:34;24.80;;;18.30;;
8458;SDS011;4266;48.816;9.154;2024-03-02T06:03:59;29.43;;;19.30;;
8458;SDS011;4266;48.816;9.154;2024-03-02T06:06:25;23.80;;;18.53;;
8458;SDS011;4266;48.816;9.154;2024-03-02T06:08:51;24.20;;;18.33;;
8458;SDS011;4266;48.816;9.154;2024-03-02T06:11:17;25.00;;;18.03;;
8458;SDS011;4266;48.816;9.154;2024-03-02T06:13:42;30.10;;;19.60;;
8458;SDS011;4266;48.816;9.154;2024-03-02T06:16:08;25.17;;;18.87;;
8458;SDS011;4266;48.816;9.154;2024-03-02T06:18:34;26.97;;;19.13;;
8458;SDS011;4266;48.816;9.154;2024-03-02T06:21:00;24.00;;;18.83;;
8458;SDS011;4266;48.816;9.154;2024-03-02T06:23:26;24.00;;;17.77;;
8458;SDS011;4266;48.816;9.154;2024-03-02T06:25:52;25.53;;;18.33;;
8458;SDS011;4266;48.816;9.154;2024-03-02T06:28:18;26.90;;;19.17;;
8458;SDS011;4266;48.816;9.154;2024-03-02T06:30:44;23.00;;;18.47;;
8458;SDS011;4266;48.816;9.154;2024-03-02T06:33:10;23.50;;;18.90;;
8458;SDS011;4266;48.816;9.154;2024-03-02T06:35:35;23.37;;;19.80;;
8458;SDS011;4266;48.816;9.154;2024-03-02T06:38:01;25.10;;;19.13;;
8458;SDS011;4266;48.816;9.154;2024-03-02T06:40:27;20.77;;;17.47;;
8458;SDS011;4266;48.816;9.154;2024-03-02T06:42:52;24.07;;;19.07;;
8458;SDS011;4266;48.816;9.154;2024-03-02T06:45:19;22.37;;;18.47;;
8458;SDS011;4266;48.816;9.154;2024-03-02T06:47:44;22.27;;;17.90;;
8458;SDS011;4266;48.816;9.154;2024-03-02T06:50:10;20.27;;;15.97;;
8458;SDS011;4266;48.816;9.154;2024-03-02T06:52:36;24.20;;;18.07;;
8458;SDS011;4266;48.816;9.154;2024-03-02T06:55:02;22.60;;;18.17;;
8458;SDS011;4266;48.816;9.154;2024-03-02T06:57:29;21.90;;;18.10;;
8458;SDS011;4266;48.816;9.154;2024-03-02T06:59:54;21.97;;;18.23;;
8458;SDS011;4266;48.816;9.154;2024-03-02T07:02:20;21.80;;;17.63;;
8458;SDS011;4266;48.816;9.154;2024-03-02T07:04:46;20.97;;;16.97;;
8458;SDS011;4266;48.816;9.154;2024-03-02T07:07:12;22.70;;;17.57;;
8458;SDS011;4266;48.816;9.154;2024-03-02T07:09:37;20.83;;;17.03;;
8458;SDS011;4266;48.816;9.154;2024-03-02T07:12:03;20.33;;;17.30;;
8458;SDS011;4266;48.816;9.154;2024-03-02T07:14:30;20.47;;;16.80;;
8458;SDS011;4266;48.816;9.154;2024-03-02T07:17:02;21.07;;;16.50;;
8458;SDS011;4266;48.816;9.154;2024-03-02T07:19:28;16.43;;;14.00;;
8458;SDS011;4266;48.816;9.154;2024-03-02T07:21:54;15.90;;;14.30;;
8458;SDS011;4266;48.816;9.154;2024-03-02T07:24:20;13.60;;;12.20;;
8458;SDS011;4266;48.816;9.154;2024-03-02T07:26:46;12.77;;;11.47;;
8458;SDS011;4266;48.816;9.154;2024-03-02T07:29:11;13.27;;;11.77;;
8458;SDS011;4266;48.816;9.154;2024-03-02T07:31:37;12.37;;;11.03;;
8458;SDS011;4266;48.816;9.154;2024-03-02T07:34:03;13.07;;;11.87;;
8458;SDS011;4266;48.816;9.154;2024-03-02T07:36:28;12.40;;;11.10;;
8458;SDS011;4266;48.816;9.154;2024-03-02T07:38:54;15.80;;;14.27;;
8458;SDS011;4266;48.816;9.154;2024-03-02T07:41:20;12.87;;;11.67;;
8458;SDS011;4266;48.816;9.154;2024-03-02T07:43:47;12.10;;;11.00;;
8458;SDS011;4266;48.816;9.154;2024-03-02T07:46:13;12.00;;;10.90;;
8458;SDS011;4266;48.816;9.154;2024-03-02T07:48:39;11.10;;;10.10;;
8458;SDS011;4266;48.816;9.154;2024-03-02T07:51:08;13.67;;;12.37;;
8458;SDS011;4266;48.816;9.154;2024-03-02T07:53:39;12.30;;;11.00;;
8458;SDS011;4266;48.816;9.154;2024-03-02T07:56:07;14.23;;;12.10;;
8458;SDS011;4266;48.816;9.154;2024-03-02T07:58:32;11.13;;;10.10;;
8458;SDS011;4266;48.816;9.154;2024-03-02T08:00:58;13.17;;;11.87;;
8458;SDS011;4266;48.816;9.154;2024-03-02T08:03:24;13.10;;;10.90;;
8458;SDS011;4266;48.816;9.154;2024-03-02T08:05:49;12.27;;;11.17;;
8458;SDS011;4266;48.816;9.154;2024-03-02T08:08:15;12.53;;;11.33;;
8458;SDS011;4266;48.816;9.154;2024-03-02T08:10:41;10.80;;;9.77;;
8458;SDS011;4266;48.816;9.154;2024-03-02T08:13:06;13.23;;;12.03;;
8458;SDS011;4266;48.816;9.154;2024-03-02T08:15:32;10.33;;;9.43;;
8458;SDS011;4266;48.816;9.154;2024-03-02T08:17:58;15.63;;;14.13;;
8458;SDS011;4266;48.816;9.154;2024-03-02T08:20:23;15.73;;;13.87;;
8458;SDS011;4266;48.816;9.154;2024-03-02T08:22:49;16.27;;;14.57;;
8458;SDS011;4266;48.816;9.154;2024-03-02T08:25:15;15.70;;;13.80;;
8458;SDS011;4266;48.816;9.154;2024-03-02T08:27:41;13.37;;;12.07;;
8458;SDS011;4266;48.816;9.154;2024-03-02T08:30:07;14.10;;;12.90;;
8458;SDS011;4266;48.816;9.154;2024-03-02T08:32:34;15.50;;;12.27;;
8458;SDS011;4266;48.816;9.154;2024-03-02T08:35:00;12.40;;;11.30;;
8458;SDS011;4266;48.816;9.154;2024-03-02T08:37:26;11.93;;;10.73;;
8458;SDS011;4266;48.816;9.154;2024-03-02T08:39:52;13.53;;;12.13;;
8458;SDS011;4266;48.816;9.154;2024-03-02T08:42:18;13.00;;;11.57;;
8458;SDS011;4266;48.816;9.154;2024-03-02T08:44:44;12.27;;;11.18;;
8458;SDS011;4266;48.816;9.154;2024-03-02T08:47:09;11.52;;;10.52;;
8458;SDS011;4266;48.816;9.154;2024-03-02T08:49:35;10.82;;;9.48;;
8458;SDS011;4266;48.816;9.154;2024-03-02T08:52:01;10.20;;;9.30;;
8458;SDS011;4266;48.816;9.154;2024-03-02T08:54:26;9.43;;;8.63;;
8458;SDS011;4266;48.816;9.154;2024-03-02T08:56:52;9.25;;;8.40;;
8458;SDS011;4266;48.816;9.154;2024-03-02T08:59:18;10.50;;;9.70;;
8458;SDS011;4266;48.816;9.154;2024-03-02T09:01:43;8.98;;;8.27;;
8458;SDS011;4266;48.816;9.154;2024-03-02T09:04:09;8.95;;;8.05;;
8458;SDS011;4266;48.816;9.154;2024-03-02T09:06:35;15.65;;;12.23;;
8458;SDS011;4266;48.816;9.154;2024-03-02T09:09:00;25.98;;;17.98;;
8458;SDS011;4266;48.816;9.154;2024-03-02T09:11:27;15.65;;;13.18;;
8458;SDS011;4266;48.816;9.154;2024-03-02T09:13:53;8.95;;;8.15;;
8458;SDS011;4266;48.816;9.154;2024-03-02T09:16:19;7.95;;;7.35;;
8458;SDS011;4266;48.816;9.154;2024-03-02T09:18:45;7.32;;;6.68;;
8458;SDS011;4266;48.816;9.154;2024-03-02T09:21:11;6.82;;;6.32;;
8458;SDS011;4266;48.816;9.154;2024-03-02T09:23:38;6.97;;;6.47;;
8458;SDS011;4266;48.816;9.154;2024-03-02T09:26:03;7.28;;;6.68;;
8458;SDS011;4266;48.816;9.154;2024-03-02T09:28:29;6.87;;;6.28;;
8458;SDS011;4266;48.816;9.154;2024-03-02T09:30:55;6.80;;;6.30;;
8458;SDS011;4266;48.816;9.154;2024-03-02T09:33:20;7.07;;;6.53;;
8458;SDS011;4266;48.816;9.154;2024-03-02T09:35:46;6.80;;;6.15;;
8458;SDS011;4266;48.816;9.154;2024-03-02T09:38:12;6.00;;;5.55;;
8458;SDS011;4266;48.816;9.154;2024-03-02T09:40:37;6.30;;;5.80;;
8458;SDS011;4266;48.816;9.154;2024-03-02T09:43:03;6.62;;;6.07;;
8458;SDS011;4266;48.816;9.154;2024-03-02T09:45:29;7.72;;;7.03;;
8458;SDS011;4266;48.816;9.154;2024-03-02T09:47:55;6.00;;;5.60;;
8458;SDS011;4266;48.816;9.154;2024-03-02T09:50:22;6.05;;;5.45;;
8458;SDS011;4266;48.816;9.154;2024-03-02T09:52:48;6.20;;;5.80;;
8458;SDS011;4266;48.816;9.154;2024-03-02T09:55:14;6.47;;;5.60;;
8458;SDS011;4266;48.816;9.154;2024-03-02T09:57:39;6.45;;;6.05;;
8458;SDS011;4266;48.816;9.154;2024-03-02T10:00:06;7.22;;;6.72;;
8458;SDS011;4266;48.816;9.154;2024-03-02T10:02:33;6.20;;;5.75;;
8458;SDS011;4266;48.816;9.154;2024-03-02T10:04:59;6.40;;;6.00;;
8458;SDS011;4266;48.816;9.154;2024-03-02T10:07:26;7.45;;;6.95;;
8458;SDS011;4266;48.816;9.154;2024-03-02T10:09:53;8.90;;;8.05;;
8458;SDS011;4266;48.816;9.154;2024-03-02T10:12:18;8.60;;;7.70;;
8458;SDS011;4266;48.816;9.154;2024-03-02T10:14:44;6.03;;;5.60;;
8458;SDS011;4266;48.816;9.154;2024-03-02T10:17:11;6.25;;;5.75;;
8458;SDS011;4266;48.816;9.154;2024-03-02T10:19:36;6.25;;;5.75;;
8458;SDS011;4266;48.816;9.154;2024-03-02T10:22:02;6.07;;;5.65;;
8458;SDS011;4266;48.816;9.154;2024-03-02T10:24:34;6.35;;;5.85;;
8458;SDS011;4266;48.816;9.154;2024-03-02T10:26:54;6.37;;;5.90;;
8458;SDS011;4266;48.816;9.154;2024-03-02T10:29:20;6.50;;;6.10;;
8458;SDS011;4266;48.816;9.154;2024-03-02T10:31:46;5.93;;;5.53;;
8458;SDS011;4266;48.816;9.154;2024-03-02T10:34:12;6.60;;;5.93;;
8458;SDS011;4266;48.816;9.154;2024-03-02T10:36:38;6.68;;;5.85;;
8458;SDS011;4266;48.816;9.154;2024-03-02T10:39:04;5.85;;;5.30;;
8458;SDS011;4266;48.816;9.154;2024-03-02T10:41:32;6.20;;;5.60;;
8458;SDS011;4266;48.816;9.154;2024-03-02T10:43:57;6.05;;;5.57;;
8458;SDS011;4266;48.816;9.154;2024-03-02T10:46:23;5.57;;;5.07;;
8458;SDS011;4266;48.816;9.154;2024-03-02T10:48:49;5.05;;;4.65;;
8458;SDS011;4266;48.816;9.154;2024-03-02T10:51:15;4.40;;;3.97;;
8458;SDS011;4266;48.816;9.154;2024-03-02T10:53:40;5.97;;;5.03;;
8458;SDS011;4266;48.816;9.154;2024-03-02T10:56:07;5.30;;;4.90;;
8458;SDS011;4266;48.816;9.154;2024-03-02T10:58:32;4.82;;;4.53;;
8458;SDS011;4266;48.816;9.154;2024-03-02T11:00:59;4.78;;;4.47;;
8458;SDS011;4266;48.816;9.154;2024-03-02T11:03:25;5.40;;;4.90;;
8458;SDS011;4266;48.816;9.154;2024-03-02T11:05:50;5.80;;;4.90;;
8458;SDS011;4266;48.816;9.154;2024-03-02T11:08:18;4.80;;;4.40;;
8458;SDS011;4266;48.816;9.154;2024-03-02T11:10:46;5.03;;;4.72;;
8458;SDS011;4266;48.816;9.154;2024-03-02T11:13:13;4.80;;;4.40;;
8458;SDS011;4266;48.816;9.154;2024-03-02T11:15:40;5.15;;;4.25;;
8458;SDS011;4266;48.816;9.154;2024-03-02T11:18:06;5.10;;;4.68;;
8458;SDS011;4266;48.816;9.154;2024-03-02T11:20:32;4.70;;;4.30;;
8458;SDS011;4266;48.816;9.154;2024-03-02T11:23:03;4.72;;;4.22;;
8458;SDS011;4266;48.816;9.154;2024-03-02T11:25:24;4.12;;;3.92;;
8458;SDS011;4266;48.816;9.154;2024-03-02T11:28:00;4.00;;;3.80;;
8458;SDS011;4266;48.816;9.154;2024-03-02T11:33:15;4.60;;;3.83;;
8458;SDS011;4266;48.816;9.154;2024-03-02T11:35:41;3.72;;;3.42;;
8458;SDS011;4266;48.816;9.154;2024-03-02T11:38:06;3.65;;;3.35;;
8458;SDS011;4266;48.816;9.154;2024-03-02T11:40:32;3.75;;;3.53;;
8458;SDS011;4266;48.816;9.154;2024-03-02T11:42:59;5.05;;;2.80;;
8458;SDS011;4266;48.816;9.154;2024-03-02T11:45:26;3.53;;;3.33;;
8458;SDS011;4266;48.816;9.154;2024-03-02T11:47:53;3.55;;;3.35;;
8458;SDS011;4266;48.816;9.154;2024-03-02T11:50:28;4.53;;;4.22;;
8458;SDS011;4266;48.816;9.154;2024-03-02T11:52:49;3.50;;;3.10;;
8458;SDS011;4266;48.816;9.154;2024-03-02T11:55:15;3.00;;;2.70;;
8458;SDS011;4266;48.816;9.154;2024-03-02T11:57:41;3.87;;;2.80;;
8458;SDS011;4266;48.816;9.154;2024-03-02T12:00:16;2.58;;;2.47;;
8458;SDS011;4266;48.816;9.154;2024-03-02T12:02:35;3.28;;;2.55;;
8458;SDS011;4266;48.816;9.154;2024-03-02T12:05:02;2.85;;;2.62;;
8458;SDS011;4266;48.816;9.154;2024-03-02T12:07:26;2.70;;;2.50;;
8458;SDS011;4266;48.816;9.154;2024-03-02T12:10:02;2.40;;;2.20;;
8458;SDS011;4266;48.816;9.154;2024-03-02T12:12:28;3.00;;;2.10;;
8458;SDS011;4266;48.816;9.154;2024-03-02T12:14:53;2.75;;;2.53;;
8458;SDS011;4266;48.816;9.154;2024-03-02T12:17:19;2.40;;;2.30;;
8458;SDS011;4266;48.816;9.154;2024-03-02T12:19:45;2.75;;;2.22;;
8458;SDS011;4266;48.816;9.154;2024-03-02T12:22:11;2.15;;;2.05;;
8458;SDS011;4266;48.816;9.154;2024-03-02T12:24:37;2.55;;;2.45;;
8458;SDS011;4266;48.816;9.154;2024-03-02T12:27:03;2.20;;;2.10;;
8458;SDS011;4266;48.816;9.154;2024-03-02T12:29:29;4.75;;;1.98;;
8458;SDS011;4266;48.816;9.154;2024-03-02T12:31:54;2.30;;;2.20;;
8458;SDS011;4266;48.816;9.154;2024-03-02T12:34:20;1.73;;;1.60;;
8458;SDS011;4266;48.816;9.154;2024-03-02T12:36:46;1.87;;;1.77;;
8458;SDS011;4266;48.816;9.154;2024-03-02T12:39:11;2.10;;;2.00;;
8458;SDS011;4266;48.816;9.154;2024-03-02T12:41:37;1.80;;;1.70;;
8458;SDS011;4266;48.816;9.154;2024-03-02T12:44:03;2.15;;;2.00;;
8458;SDS011;4266;48.816;9.154;2024-03-02T12:46:29;1.77;;;1.70;;
8458;SDS011;4266;48.816;9.154;2024-03-02T12:48:54;4.05;;;1.75;;
8458;SDS011;4266;48.816;9.154;2024-03-02T12:51:20;2.58;;;1.75;;
8458;SDS011;4266;48.816;9.154;2024-03-02T12:53:45;1.73;;;1.73;;
8458;SDS011;4266;48.816;9.154;2024-03-02T12:56:12;1.80;;;1.70;;
8458;SDS011;4266;48.816;9.154;2024-03-02T12:58:39;1.50;;;1.50;;
8458;SDS011;4266;48.816;9.154;2024-03-02T13:01:06;1.70;;;1.70;;
8458;SDS011;4266;48.816;9.154;2024-03-02T13:03:34;1.80;;;1.70;;
8458;SDS011;4266;48.816;9.154;2024-03-02T13:05:58;2.10;;;2.00;;
8458;SDS011;4266;48.816;9.154;2024-03-02T13:08:24;2.05;;;1.83;;
8458;SDS011;4266;48.816;9.154;2024-03-02T13:10:49;1.80;;;1.70;;
8458;SDS011;4266;48.816;9.154;2024-03-02T13:13:15;4.62;;;1.90;;
8458;SDS011;4266;48.816;9.154;2024-03-02T13:15:41;2.10;;;2.00;;
8458;SDS011;4266;48.816;9.154;2024-03-02T13:18:07;2.42;;;2.28;;
8458;SDS011;4266;48.816;9.154;2024-03-02T13:20:33;2.10;;;1.90;;
8458;SDS011;4266;48.816;9.154;2024-03-02T13:22:59;2.25;;;2.15;;
8458;SDS011;4266;48.816;9.154;2024-03-02T13:25:24;2.40;;;2.20;;
8458;SDS011;4266;48.816;9.154;2024-03-02T13:27:50;2.40;;;2.28;;
8458;SDS011;4266;48.816;9.154;2024-03-02T13:30:17;2.10;;;2.00;;
8458;SDS011;4266;48.816;9.154;2024-03-02T13:32:42;2.37;;;2.00;;
8458;SDS011;4266;48.816;9.154;2024-03-02T13:35:08;2.20;;;2.10;;
8458;SDS011;4266;48.816;9.154;2024-03-02T13:37:34;2.47;;;2.37;;
8458;SDS011;4266;48.816;9.154;2024-03-02T13:39:59;3.87;;;2.10;;
8458;SDS011;4266;48.816;9.154;2024-03-02T13:42:26;2.72;;;2.45;;
8458;SDS011;4266;48.816;9.154;2024-03-02T13:44:52;2.15;;;2.05;;
8458;SDS011;4266;48.816;9.154;2024-03-02T13:47:19;2.03;;;1.92;;
8458;SDS011;4266;48.816;9.154;2024-03-02T13:49:45;2.42;;;2.33;;
8458;SDS011;4266;48.816;9.154;2024-03-02T13:52:11;2.05;;;1.95;;
8458;SDS011;4266;48.816;9.154;2024-03-02T13:54:37;4.43;;;2.20;;
8458;SDS011;4266;48.816;9.154;2024-03-02T13:57:03;2.97;;;2.75;;
8458;SDS011;4266;48.816;9.154;2024-03-02T13:59:29;3.58;;;3.03;;
8458;SDS011;4266;48.816;9.154;2024-03-02T14:01:55;3.37;;;3.20;;
8458;SDS011;4266;48.816;9.154;2024-03-02T14:04:21;3.00;;;2.80;;
8458;SDS011;4266;48.816;9.154;2024-03-02T14:06:46;2.80;;;2.60;;
8458;SDS011;4266;48.816;9.154;2024-03-02T14:09:12;2.45;;;2.35;;
8458;SDS011;4266;48.816;9.154;2024-03-02T14:11:38;9.23;;;2.83;;
8458;SDS011;4266;48.816;9.154;2024-03-02T14:14:04;3.00;;;2.80;;
8458;SDS011;4266;48.816;9.154;2024-03-02T14:16:29;2.80;;;2.47;;
8458;SDS011;4266;48.816;9.154;2024-03-02T14:18:55;3.10;;;2.90;;
8458;SDS011;4266;48.816;9.154;2024-03-02T14:21:21;3.42;;;3.22;;
8458;SDS011;4266;48.816;9.154;2024-03-02T14:23:46;3.30;;;3.00;;
8458;SDS011;4266;48.816;9.154;2024-03-02T14:26:13;2.65;;;2.45;;
8458;SDS011;4266;48.816;9.154;2024-03-02T14:28:40;3.35;;;2.55;;
8458;SDS011;4266;48.816;9.154;2024-03-02T14:31:05;3.00;;;2.80;;
8458;SDS011;4266;48.816;9.154;2024-03-02T14:33:32;2.85;;;2.65;;
8458;SDS011;4266;48.816;9.154;2024-03-02T14:35:57;3.22;;;2.80;;
8458;SDS011;4266;48.816;9.154;2024-03-02T14:38:23;3.00;;;2.80;;
8458;SDS011;4266;48.816;9.154;2024-03-02T14:40:49;3.58;;;3.37;;
8458;SDS011;4266;48.816;9.154;2024-03-02T14:43:15;2.83;;;2.62;;
8458;SDS011;4266;48.816;9.154;2024-03-02T14:45:41;2.95;;;2.75;;
8458;SDS011;4266;48.816;9.154;2024-03-02T14:48:07;2.53;;;2.33;;
8458;SDS011;4266;48.816;9.154;2024-03-02T14:50:32;2.30;;;2.17;;
8458;SDS011;4266;48.816;9.154;2024-03-02T14:52:59;2.62;;;2.53;;